aviador You're here:

LFGA Decoded Metar

COLMAR in FRANCE
Report Time2017-08-20 19:00:00
UTC Time2017-08-20 19:13:38
Flight Rules vfr VFR
Wind010° at 06 kt
W.Decomp.*RWY 01: 6.0 kt HW 0.1 kt LCW
W.Rank010° ranks 4
Current wind is below 010° avg. (7.1)
Visibility9999 m
Phenomena:N/A
Clouds:N/A
Expected CloudBase > 4,400 ft AGL from Temp-Dew spread
CeilingNone
Temp18°C
Dew Point07°C (49% RH)
AAT15.2°C
QNH1024 hPa
Raw Report
METAR LFGA 201900Z AUTO 01006KT CAVOK 18/07 Q1024=

Extra information for LFGA:More info

Metar Taf Metar & Taf Last 4 Metars F.Rules Stats Wind Profile Meteogram Temp Stats Airport Information Weather charts Add Link Nearby VenuesMetar ALERT Operation Metar Decoded Social comments